Time;durP1;ratioP1;P1;durP2;ratioP2;P2;SDS_P1;SDS_P2;PMS_P1;PMS_P2;Temp;Humidity;BMP_temperature;BMP_pressure;BME280_temperature;BME280_humidity;BME280_pressure;Samples;Min_cycle;Max_cycle;Signal;HPM_P1;HPM_P2
2022/10/07 00:01:27;;;;;;;6.1;4.8;;;;;;;12.61;91.59375;947.9073;;;;
2022/10/07 00:03:52;;;;;;;6;4.2;;;;;;;12.47;92.19824;947.889;;;;
2022/10/07 00:06:40;;;;;;;7.2;3.9;;;;;;;12.47;92.40234;947.8922;;;;
2022/10/07 00:09:09;;;;;;;4.9;3.9;;;;;;;12.57;91.50586;947.8507;;;;
2022/10/07 00:11:34;;;;;;;6.5;4.5;;;;;;;12.65;91.08691;947.858;;;;
2022/10/07 00:14:01;;;;;;;6.4;3.8;;;;;;;12.74;90.47461;947.7667;;;;
2022/10/07 00:16:26;;;;;;;6.4;4;;;;;;;12.77;89.64453;947.8215;;;;
2022/10/07 00:18:51;;;;;;;4.5;3.5;;;;;;;12.69;90.23633;947.8356;;;;
2022/10/07 00:21:19;;;;;;;4.6;3.8;;;;;;;12.76;89.93945;947.7983;;;;
2022/10/07 00:23:44;;;;;;;5.2;3.6;;;;;;;12.78;89.93359;947.8059;;;;
2022/10/07 00:26:10;;;;;;;5.6;4;;;;;;;12.71;90.00977;947.7815;;;;
2022/10/07 00:28:35;;;;;;;5.3;3.8;;;;;;;12.69;89.90137;947.7979;;;;
2022/10/07 00:31:04;;;;;;;5.6;4;;;;;;;12.54;90.59375;947.8246;;;;
2022/10/07 00:33:29;;;;;;;4.8;3.6;;;;;;;12.51;90.25586;947.8474;;;;
2022/10/07 00:35:54;;;;;;;6.6;3.4;;;;;;;12.51;90.19629;947.8257;;;;
2022/10/07 00:38:23;;;;;;;4.5;3.6;;;;;;;12.55;89.65527;947.7881;;;;
2022/10/07 00:40:48;;;;;;;5.3;3.4;;;;;;;12.5;89.70117;947.8008;;;;
2022/10/07 00:43:16;;;;;;;6;3.2;;;;;;;12.37;90.3291;947.6336;;;;
2022/10/07 00:45:41;;;;;;;3.7;3.2;;;;;;;12.42;89.8584;947.7236;;;;
2022/10/07 00:48:07;;;;;;;3.9;3.3;;;;;;;12.33;90.17188;947.637;;;;
2022/10/07 00:50:43;;;;;;;4.1;3.2;;;;;;;12.34;89.71582;947.6819;;;;
2022/10/07 00:53:32;;;;;;;5.8;3.4;;;;;;;12.35;89.60254;947.5806;;;;
2022/10/07 00:56:00;;;;;;;4.8;3.6;;;;;;;12.25;89.06836;947.5486;;;;
2022/10/07 00:58:22;;;;;;;5.4;3.7;;;;;;;12.12;89.79688;947.5412;;;;
2022/10/07 01:00:50;;;;;;;5.6;3.6;;;;;;;12.18;89.58984;947.4719;;;;
2022/10/07 01:03:15;;;;;;;3.8;3.4;;;;;;;12.05;90.12598;947.4832;;;;
2022/10/07 01:05:44;;;;;;;4.7;3.6;;;;;;;11.86;91.28906;947.4522;;;;
2022/10/07 01:08:09;;;;;;;4.4;3.3;;;;;;;11.9;90.94336;947.3484;;;;
2022/10/07 01:10:37;;;;;;;4.8;3.5;;;;;;;11.82;91.76172;947.425;;;;
2022/10/07 01:14:08;;;;;;;5;3.6;;;;;;;11.84;91.58105;947.3337;;;;
2022/10/07 01:16:36;;;;;;;4;3.4;;;;;;;11.91;90.47363;947.3869;;;;
2022/10/07 01:19:02;;;;;;;4.8;3.3;;;;;;;11.94;90.1123;947.3331;;;;
2022/10/07 01:21:27;;;;;;;7.2;3.8;;;;;;;11.92;89.91406;947.3223;;;;
2022/10/07 01:23:55;;;;;;;5.2;3.4;;;;;;;11.92;89.71973;947.2034;;;;
2022/10/07 01:26:19;;;;;;;3.7;3.4;;;;;;;11.93;89.33398;947.2564;;;;
2022/10/07 01:28:48;;;;;;;4.5;3.4;;;;;;;11.82;89.80371;947.2375;;;;
2022/10/07 01:31:37;;;;;;;5.2;3.5;;;;;;;11.81;89.63965;947.2217;;;;
2022/10/07 01:34:02;;;;;;;5.5;3.8;;;;;;;11.76;89.20508;947.2756;;;;
2022/10/07 01:36:27;;;;;;;5.3;3.5;;;;;;;11.69;89.61719;947.2353;;;;
2022/10/07 01:41:20;;;;;;;5.7;3.7;;;;;;;11.66;90.11133;947.1596;;;;
2022/10/07 01:43:45;;;;;;;5.4;3.9;;;;;;;11.64;89.93848;947.2383;;;;
2022/10/07 01:46:11;;;;;;;5;3.7;;;;;;;11.59;89.49219;947.2106;;;;
2022/10/07 01:48:36;;;;;;;5.4;3.9;;;;;;;11.52;89.43359;947.0912;;;;
2022/10/07 01:51:01;;;;;;;4.4;3.5;;;;;;;11.52;89.42188;947.1519;;;;
2022/10/07 01:53:26;;;;;;;4.2;3.8;;;;;;;11.5;89.34766;947.1465;;;;
2022/10/07 01:55:56;;;;;;;5.1;3.6;;;;;;;11.57;89.41992;947.093;;;;
2022/10/07 01:58:24;;;;;;;6.2;3.4;;;;;;;11.48;89.92773;947.0721;;;;
2022/10/07 02:00:49;;;;;;;4.2;3.3;;;;;;;11.42;90.37402;947.1124;;;;
2022/10/07 02:03:16;;;;;;;4.3;3.2;;;;;;;11.38;89.88379;947.0984;;;;
2022/10/07 02:05:40;;;;;;;4.1;3.2;;;;;;;11.4;89.44141;947.1053;;;;
2022/10/07 02:08:05;;;;;;;3.9;3.5;;;;;;;11.32;89.99707;947.0486;;;;
2022/10/07 02:10:30;;;;;;;5.2;3.5;;;;;;;11.17;91.51953;947.0004;;;;
2022/10/07 02:12:56;;;;;;;4.4;3.5;;;;;;;11.14;91.26465;947.0262;;;;
2022/10/07 02:15:21;;;;;;;4.2;3.2;;;;;;;11.17;90.67383;946.9718;;;;
2022/10/07 02:17:47;;;;;;;4.1;3.1;;;;;;;11.05;90.375;947.0306;;;;
2022/10/07 02:20:12;;;;;;;3.5;3.2;;;;;;;11.08;89.52441;947.0027;;;;
2022/10/07 02:22:37;;;;;;;4.6;3.4;;;;;;;10.98;89.65332;946.9939;;;;
2022/10/07 02:25:05;;;;;;;4.7;3.3;;;;;;;10.92;89.39746;947.0115;;;;
2022/10/07 02:27:31;;;;;;;4.4;3.3;;;;;;;10.77;90.39844;946.9753;;;;
2022/10/07 02:29:56;;;;;;;5;4;;;;;;;10.76;90.50879;946.9838;;;;
2022/10/07 02:32:22;;;;;;;5.6;3.2;;;;;;;10.64;89.09082;946.9924;;;;
2022/10/07 02:34:47;;;;;;;4.6;3.3;;;;;;;10.55;89.01465;946.9659;;;;
2022/10/07 02:37:13;;;;;;;5.4;3.3;;;;;;;10.59;89.60449;946.8203;;;;
2022/10/07 02:39:37;;;;;;;4.6;3.4;;;;;;;10.65;89.8125;946.9208;;;;
2022/10/07 02:42:02;;;;;;;5.9;3.5;;;;;;;10.64;90.81348;946.8759;;;;
2022/10/07 02:44:50;;;;;;;6.6;4;;;;;;;10.61;91.20703;946.8856;;;;
2022/10/07 02:47:02;;;;;;;3.3;3;;;;;;;10.42;89.83203;946.8625;;;;
2022/10/07 02:49:27;;;;;;;3.7;2.9;;;;;;;10.35;88.6543;946.906;;;;
2022/10/07 02:51:55;;;;;;;6;3.5;;;;;;;10.34;89.72363;946.846;;;;
2022/10/07 02:54:20;;;;;;;4.3;3.5;;;;;;;10.31;91.06445;946.8087;;;;
2022/10/07 02:56:47;;;;;;;7.3;3.9;;;;;;;10.32;91.94727;946.8409;;;;
2022/10/07 03:02:06;;;;;;;5.8;3.5;;;;;;;10.43;91.71875;946.8262;;;;
2022/10/07 03:04:31;;;;;;;5;3.5;;;;;;;10.48;91.2832;946.813;;;;
2022/10/07 03:06:57;;;;;;;5.6;4.1;;;;;;;10.49;91.53809;946.8715;;;;
2022/10/07 03:09:22;;;;;;;4.7;3.4;;;;;;;10.46;90.57031;946.9176;;;;
2022/10/07 03:11:50;;;;;;;3.4;3;;;;;;;10.23;90.55664;946.9158;;;;
2022/10/07 03:14:14;;;;;;;5.4;3.1;;;;;;;10.07;89.94336;946.7784;;;;
2022/10/07 03:16:41;;;;;;;3.8;3.2;;;;;;;10.11;89.75684;946.8248;;;;
2022/10/07 03:28:05;;;;;;;7.1;4.1;;;;;;;10.13;90.50195;946.8403;;;;
2022/10/07 03:30:30;;;;;;;5.8;4.1;;;;;;;10.24;90.56055;946.8412;;;;
2022/10/07 03:32:58;;;;;;;5.6;3.5;;;;;;;10.28;90.8418;946.812;;;;
2022/10/07 03:35:23;;;;;;;4.6;3.8;;;;;;;10.27;90.98828;946.8643;;;;
2022/10/07 03:37:50;;;;;;;5.7;3.8;;;;;;;10.24;90.61621;946.8467;;;;
2022/10/07 03:40:16;;;;;;;4.9;3.6;;;;;;;10.23;90.56836;946.8297;;;;
2022/10/07 03:45:28;;;;;;;5.4;4;;;;;;;10.25;90.79102;946.7755;;;;
2022/10/07 03:47:55;;;;;;;5.1;3.7;;;;;;;10.2;90.58496;946.7703;;;;
2022/10/07 03:50:20;;;;;;;6;3.8;;;;;;;10.1;90.79297;946.7488;;;;
2022/10/07 03:52:47;;;;;;;4.7;3.4;;;;;;;10.03;90.41406;946.7743;;;;
2022/10/07 03:55:15;;;;;;;6.5;3.9;;;;;;;10.02;90.56055;946.7239;;;;
2022/10/07 03:57:52;;;;;;;5.1;4;;;;;;;10.05;90.86328;946.7462;;;;
2022/10/07 04:02:33;;;;;;;5.9;4.7;;;;;;;10.11;91.57031;946.7324;;;;
2022/10/07 04:04:58;;;;;;;10.9;4.9;;;;;;;10.16;91.52441;946.7042;;;;
2022/10/07 04:07:25;;;;;;;6;4.3;;;;;;;10.18;91.86914;946.617;;;;
2022/10/07 04:09:50;;;;;;;7.4;4.9;;;;;;;10.17;91.74316;946.6129;;;;
2022/10/07 04:12:15;;;;;;;6.1;4.5;;;;;;;10.21;91.22656;946.558;;;;
2022/10/07 04:14:40;;;;;;;6.8;4.7;;;;;;;10.18;91.79102;946.618;;;;
2022/10/07 04:17:05;;;;;;;11.6;5;;;;;;;10.26;91.68262;946.5726;;;;
2022/10/07 04:19:36;;;;;;;8.8;5.4;;;;;;;10.24;91.63086;946.5268;;;;
2022/10/07 04:22:00;;;;;;;14;5.9;;;;;;;10.25;92.22852;946.559;;;;
2022/10/07 04:24:29;;;;;;;11.2;6.5;;;;;;;10.26;92.41113;946.5295;;;;
2022/10/07 04:26:55;;;;;;;11;6.1;;;;;;;10.3;92.60352;946.4653;;;;
2022/10/07 04:29:24;;;;;;;9.8;6.3;;;;;;;10.31;92.79004;946.4568;;;;
2022/10/07 04:31:51;;;;;;;9.2;6.1;;;;;;;10.38;92.90625;946.4529;;;;
2022/10/07 04:34:21;;;;;;;10.9;6.4;;;;;;;10.42;93.1416;946.4199;;;;
2022/10/07 04:36:45;;;;;;;10.8;6.6;;;;;;;10.43;93.7627;946.3892;;;;
2022/10/07 04:39:16;;;;;;;9.2;6.5;;;;;;;10.44;93.85352;946.3654;;;;
2022/10/07 04:41:42;;;;;;;10.6;6.8;;;;;;;10.38;93.65918;946.3805;;;;
2022/10/07 04:44:16;;;;;;;8.3;6.1;;;;;;;10.33;93.3623;946.3785;;;;
2022/10/07 04:46:45;;;;;;;10.4;6;;;;;;;10.38;92.7002;946.3223;;;;
2022/10/07 04:49:15;;;;;;;9;6.3;;;;;;;10.45;92.51074;946.3728;;;;
2022/10/07 04:51:45;;;;;;;9.3;6;;;;;;;10.56;92.55664;946.3775;;;;
2022/10/07 04:54:10;;;;;;;10.3;6.8;;;;;;;10.64;92.48047;946.4275;;;;
2022/10/07 04:58:14;;;;;;;10;6.7;;;;;;;10.64;92.64258;946.3543;;;;
2022/10/07 05:00:37;;;;;;;8.3;6.3;;;;;;;10.53;93.77246;946.3986;;;;
2022/10/07 05:03:08;;;;;;;10.5;6.1;;;;;;;10.61;93.10254;946.3456;;;;
2022/10/07 05:05:39;;;;;;;10.8;6.3;;;;;;;10.64;93.47656;946.3026;;;;
2022/10/07 05:08:09;;;;;;;10.1;5.9;;;;;;;10.63;93.42871;946.276;;;;
2022/10/07 05:10:39;;;;;;;9.5;6.7;;;;;;;10.61;93.53711;946.225;;;;
2022/10/07 05:13:04;;;;;;;10.7;6.1;;;;;;;10.61;93.53711;946.2425;;;;
2022/10/07 05:15:40;;;;;;;16.8;8.2;;;;;;;10.63;93.48535;946.2155;;;;
2022/10/07 05:18:07;;;;;;;32.5;17.2;;;;;;;10.61;93.88184;946.2445;;;;
2022/10/07 05:20:41;;;;;;;17.7;8.9;;;;;;;10.64;93.7959;946.2961;;;;
2022/10/07 05:23:03;;;;;;;13.4;7.4;;;;;;;10.56;94.41797;946.2463;;;;
2022/10/07 05:26:28;;;;;;;13.8;6.8;;;;;;;10.59;94.40332;946.2756;;;;
2022/10/07 05:29:20;;;;;;;10.2;7.1;;;;;;;10.53;94.6748;946.2869;;;;
2022/10/07 05:31:49;;;;;;;9.1;6.1;;;;;;;10.63;94.41113;946.287;;;;
2022/10/07 05:34:14;;;;;;;11.3;6.5;;;;;;;10.64;94.44531;946.2347;;;;
2022/10/07 05:36:41;;;;;;;11.8;5.6;;;;;;;10.62;94.2373;946.2464;;;;
2022/10/07 05:39:06;;;;;;;8.8;5.6;;;;;;;10.59;94.14941;946.238;;;;
2022/10/07 05:41:35;;;;;;;9.1;5.4;;;;;;;10.59;93.52148;946.1713;;;;
2022/10/07 05:44:00;;;;;;;11.5;5.2;;;;;;;10.52;93.6084;946.2278;;;;
2022/10/07 05:46:26;;;;;;;10.3;4.8;;;;;;;10.47;94.27246;946.3198;;;;
2022/10/07 05:48:51;;;;;;;8.3;4.7;;;;;;;10.54;93.5918;946.3112;;;;
2022/10/07 05:51:22;;;;;;;12.6;5.5;;;;;;;10.62;93.5957;946.2957;;;;
2022/10/07 05:53:53;;;;;;;7.7;4.5;;;;;;;10.69;93.05176;946.3092;;;;
2022/10/07 05:56:23;;;;;;;9.7;4.6;;;;;;;10.81;92.93066;946.3153;;;;
2022/10/07 05:58:52;;;;;;;8.3;4.7;;;;;;;10.94;92.4209;946.2367;;;;
2022/10/07 06:01:18;;;;;;;7.8;4.9;;;;;;;10.87;92.0166;946.2759;;;;
2022/10/07 06:03:56;;;;;;;9.6;4.9;;;;;;;10.82;92.25879;946.2525;;;;
2022/10/07 06:06:20;;;;;;;8.5;5.1;;;;;;;10.93;92.45117;946.2491;;;;
2022/10/07 06:08:48;;;;;;;8.8;5.8;;;;;;;10.6;94.85938;946.2908;;;;
2022/10/07 06:13:38;;;;;;;9.2;5.3;;;;;;;10.62;96.07422;946.282;;;;
2022/10/07 06:16:13;;;;;;;10.6;5.2;;;;;;;10.65;96.37891;946.2906;;;;
2022/10/07 06:18:40;;;;;;;8.2;4.9;;;;;;;10.64;96.55957;946.2692;;;;
2022/10/07 06:21:05;;;;;;;7.6;5.1;;;;;;;10.61;96.80273;946.3405;;;;
2022/10/07 06:23:33;;;;;;;10.2;5.2;;;;;;;10.71;96.75879;946.2841;;;;
2022/10/07 06:25:58;;;;;;;7.3;5;;;;;;;10.7;96.7793;946.2441;;;;
2022/10/07 06:28:23;;;;;;;7.1;4.7;;;;;;;10.88;96.10938;946.2617;;;;
2022/10/07 06:30:50;;;;;;;8;5;;;;;;;11.35;96.41992;946.2573;;;;
2022/10/07 06:33:15;;;;;;;7.4;4.3;;;;;;;11.71;94.66797;946.2447;;;;
2022/10/07 06:35:44;;;;;;;7;4.5;;;;;;;11.83;90.86914;946.2394;;;;
2022/10/07 06:38:09;;;;;;;9;4.6;;;;;;;11.72;91.44141;946.2767;;;;
2022/10/07 06:40:36;;;;;;;6;4;;;;;;;11.94;90.53613;946.2924;;;;
2022/10/07 06:43:01;;;;;;;5.7;3.8;;;;;;;11.92;88.71387;946.1986;;;;
2022/10/07 06:45:30;;;;;;;5.2;3.8;;;;;;;11.98;88.87305;946.2004;;;;
2022/10/07 06:50:52;;;;;;;6;4.2;;;;;;;11.89;88.23633;946.1735;;;;
2022/10/07 06:53:17;;;;;;;6.2;4;;;;;;;11.73;89.39551;946.1741;;;;
2022/10/07 06:55:46;;;;;;;8.8;5.1;;;;;;;12.02;89.13477;946.1527;;;;
2022/10/07 06:58:17;;;;;;;9;4.7;;;;;;;12.26;87.07324;946.1848;;;;
2022/10/07 07:00:42;;;;;;;9.1;4.7;;;;;;;12.72;86.99414;946.1545;;;;
2022/10/07 07:03:09;;;;;;;9.6;5.3;;;;;;;12.99;85.78516;946.1264;;;;
2022/10/07 07:05:33;;;;;;;5.1;3.9;;;;;;;13.23;84.79883;946.0991;;;;
2022/10/07 07:07:58;;;;;;;5.1;3.4;;;;;;;13.45;83.73828;946.0923;;;;
2022/10/07 07:10:23;;;;;;;5.1;4;;;;;;;13.64;83.23438;946.0545;;;;
2022/10/07 07:12:48;;;;;;;6.1;4;;;;;;;13.95;81.15234;946.077;;;;
2022/10/07 07:15:20;;;;;;;4.9;3.3;;;;;;;13.94;79.06934;946.017;;;;
2022/10/07 07:17:44;;;;;;;7;3.7;;;;;;;14.23;78.82031;946.0416;;;;
2022/10/07 07:20:17;;;;;;;4.8;3.2;;;;;;;14.17;78.62695;946.0112;;;;
2022/10/07 07:22:43;;;;;;;4.2;2.9;;;;;;;14.64;76.50977;946.0397;;;;
2022/10/07 07:25:10;;;;;;;3;2.5;;;;;;;14.61;76.5957;946.0817;;;;
2022/10/07 07:27:40;;;;;;;4.1;3.2;;;;;;;14.6;76.16797;946.0544;;;;
2022/10/07 07:30:04;;;;;;;6.5;2.8;;;;;;;14.66;75.70605;946.0872;;;;
2022/10/07 07:32:32;;;;;;;5.4;2.9;;;;;;;15.09;74.28125;946.0444;;;;
2022/10/07 07:34:59;;;;;;;4.9;2.6;;;;;;;15.14;75.23535;946.0317;;;;
2022/10/07 07:38:00;;;;;;;6.8;3.2;;;;;;;15.4;74.27539;946.0515;;;;
2022/10/07 07:40:31;;;;;;;3.2;2.9;;;;;;;15.44;71.70703;946.0158;;;;
2022/10/07 07:42:56;;;;;;;3.3;2.4;;;;;;;15.23;73.91211;945.9642;;;;
2022/10/07 07:45:31;;;;;;;3.7;2.6;;;;;;;15.86;71.47559;945.9615;;;;
2022/10/07 07:47:53;;;;;;;5.1;2.6;;;;;;;16.61;69.45508;945.8908;;;;
2022/10/07 07:50:48;;;;;;;3.6;2.4;;;;;;;17.09;67.67773;945.8795;;;;
2022/10/07 07:53:17;;;;;;;3.5;2.3;;;;;;;17.29;67.45313;945.7921;;;;
2022/10/07 07:55:43;;;;;;;3.3;2.3;;;;;;;17.57;65.80371;945.8466;;;;
2022/10/07 07:58:20;;;;;;;4.2;2.3;;;;;;;17.68;64.68262;945.7886;;;;
2022/10/07 08:00:45;;;;;;;4.1;2.6;;;;;;;17.68;65.64551;945.7935;;;;
2022/10/07 08:03:09;;;;;;;4.7;2.5;;;;;;;17.62;66.11035;945.8278;;;;
2022/10/07 08:05:38;;;;;;;5.2;2.6;;;;;;;18.18;64.60449;945.789;;;;
2022/10/07 08:08:07;;;;;;;3.5;2.9;;;;;;;17.82;65.88672;945.7184;;;;
2022/10/07 08:10:31;;;;;;;4.2;2.5;;;;;;;17.59;65.47949;945.6943;;;;
2022/10/07 08:12:57;;;;;;;4.7;2.9;;;;;;;17.67;66.1416;945.6594;;;;
2022/10/07 08:15:22;;;;;;;4.5;2.9;;;;;;;17.54;66.25098;945.6744;;;;
2022/10/07 08:17:52;;;;;;;4.1;2.6;;;;;;;18.22;64.45898;945.6766;;;;
2022/10/07 08:20:17;;;;;;;5.4;2.6;;;;;;;18.29;62.95801;945.6594;;;;
2022/10/07 08:22:44;;;;;;;5.6;2.5;;;;;;;18.17;66.13574;945.5948;;;;
2022/10/07 08:25:08;;;;;;;3;2.7;;;;;;;18.92;63.50293;945.594;;;;
2022/10/07 08:27:34;;;;;;;5.3;2.5;;;;;;;19.18;60.81348;945.5574;;;;
2022/10/07 08:29:59;;;;;;;4.9;2.6;;;;;;;19.71;59.7793;945.5419;;;;
2022/10/07 08:32:29;;;;;;;3.6;2.6;;;;;;;20.48;58.85645;945.4885;;;;
2022/10/07 08:34:54;;;;;;;7.4;3;;;;;;;21.01;56.98535;945.4124;;;;
2022/10/07 08:37:22;;;;;;;3.2;2.3;;;;;;;20.28;58.47852;945.4428;;;;
2022/10/07 08:39:47;;;;;;;7.7;2.6;;;;;;;20.16;59.10547;945.37;;;;
2022/10/07 08:42:14;;;;;;;3.7;2.6;;;;;;;20.27;56.44629;945.3516;;;;
2022/10/07 08:44:39;;;;;;;4.7;2.9;;;;;;;19.73;60.90234;945.3194;;;;
2022/10/07 08:47:09;;;;;;;3.2;2.5;;;;;;;20.16;59.68945;945.3845;;;;
2022/10/07 08:49:35;;;;;;;4.7;2.6;;;;;;;20.85;56.80078;945.3335;;;;
2022/10/07 08:51:59;;;;;;;3.6;2.5;;;;;;;20.56;58.17871;945.3358;;;;
2022/10/07 08:54:26;;;;;;;3;2.6;;;;;;;19.96;58.92676;945.2784;;;;
2022/10/07 08:56:52;;;;;;;4;2.7;;;;;;;19.71;60.6875;945.3141;;;;
2022/10/07 08:59:16;;;;;;;3.7;2.2;;;;;;;19.18;61.36133;945.3588;;;;
2022/10/07 09:01:41;;;;;;;3.1;2.3;;;;;;;19.06;62.32422;945.3699;;;;
2022/10/07 09:04:09;;;;;;;4.2;2.6;;;;;;;18.97;64.0332;945.3433;;;;
2022/10/07 09:06:34;;;;;;;3.5;2.4;;;;;;;18.79;64.51855;945.2151;;;;
2022/10/07 09:09:01;;;;;;;4.7;2.4;;;;;;;18.92;63.29199;945.264;;;;
2022/10/07 09:11:25;;;;;;;3.2;2.5;;;;;;;18.77;63.25781;945.2791;;;;
2022/10/07 09:13:51;;;;;;;4.1;2.6;;;;;;;18.81;65.98828;945.1954;;;;
2022/10/07 09:16:16;;;;;;;3.4;2.7;;;;;;;18.65;64.0332;945.2068;;;;
2022/10/07 09:18:41;;;;;;;3.4;2.6;;;;;;;18.44;65.16504;945.2165;;;;
2022/10/07 09:21:10;;;;;;;2.4;2.2;;;;;;;18.29;65.71094;945.2128;;;;
2022/10/07 09:23:35;;;;;;;3;2.6;;;;;;;18.57;63.78906;945.1498;;;;
2022/10/07 09:26:02;;;;;;;3;2.1;;;;;;;19.07;63.11621;945.0823;;;;
2022/10/07 09:28:27;;;;;;;4.6;2.4;;;;;;;18.61;65.21289;945.0833;;;;
2022/10/07 09:30:53;;;;;;;5.6;2.7;;;;;;;18.9;61.92871;945.0098;;;;
2022/10/07 09:33:18;;;;;;;2.9;2.3;;;;;;;19.15;61.4502;945.033;;;;
2022/10/07 09:35:46;;;;;;;4.2;2;;;;;;;19.06;61.51953;944.9542;;;;
2022/10/07 09:38:11;;;;;;;2.5;2.1;;;;;;;19.52;59.11328;944.9373;;;;
2022/10/07 09:41:14;;;;;;;2.9;2.3;;;;;;;19.35;59.42773;944.8892;;;;
2022/10/07 09:43:06;;;;;;;2.7;2.2;;;;;;;19.23;59.5625;944.8894;;;;
2022/10/07 09:45:32;;;;;;;4.4;2.4;;;;;;;19.14;59.5625;944.882;;;;
2022/10/07 09:47:56;;;;;;;3.9;2.4;;;;;;;19.15;61.35742;944.9119;;;;
2022/10/07 09:50:25;;;;;;;3.7;2.6;;;;;;;19.3;59.66602;944.8552;;;;
2022/10/07 09:52:51;;;;;;;4.8;2.4;;;;;;;18.64;62.84473;944.8923;;;;
2022/10/07 09:55:21;;;;;;;4.5;2.5;;;;;;;18.65;63.05664;944.8769;;;;
2022/10/07 09:57:48;;;;;;;3.8;2.6;;;;;;;18.8;64.63672;944.8405;;;;
2022/10/07 10:00:19;;;;;;;3.2;2.5;;;;;;;18.26;66.97559;944.8091;;;;
2022/10/07 10:02:44;;;;;;;4.3;2.9;;;;;;;18.12;68.58008;944.7844;;;;
2022/10/07 10:05:09;;;;;;;4.3;3;;;;;;;18.08;71.33887;944.7597;;;;
2022/10/07 10:07:38;;;;;;;4.1;3;;;;;;;18.29;73.59082;944.6791;;;;
2022/10/07 10:10:03;;;;;;;6.6;3.3;;;;;;;18.61;70.5166;944.6403;;;;
2022/10/07 10:12:32;;;;;;;3.6;3.1;;;;;;;18.62;70.26367;944.6035;;;;
2022/10/07 10:14:58;;;;;;;4;3.2;;;;;;;18.75;69.67871;944.6603;;;;
2022/10/07 10:17:23;;;;;;;4.2;3.2;;;;;;;18.98;70.12402;944.5803;;;;
2022/10/07 10:19:48;;;;;;;4.1;2.9;;;;;;;19.07;67.15625;944.5302;;;;
2022/10/07 10:22:13;;;;;;;5.2;2.9;;;;;;;19.25;68.61621;944.4724;;;;
2022/10/07 10:27:06;;;;;;;4.3;2.9;;;;;;;20.11;65.46973;944.4507;;;;
2022/10/07 10:29:31;;;;;;;7;2.9;;;;;;;19.89;65.3457;944.4338;;;;
2022/10/07 10:31:56;;;;;;;6;2.9;;;;;;;20.14;64.49512;944.4226;;;;
2022/10/07 10:34:23;;;;;;;3.1;2.7;;;;;;;20.02;63.51953;944.413;;;;
2022/10/07 10:36:47;;;;;;;3.9;2.8;;;;;;;19.94;65.85352;944.3312;;;;
2022/10/07 10:39:12;;;;;;;3.5;2.7;;;;;;;19.78;66.96094;944.3231;;;;
2022/10/07 10:41:41;;;;;;;5.2;2.6;;;;;;;19.84;65.33789;944.3045;;;;
2022/10/07 10:44:06;;;;;;;5.7;2.9;;;;;;;20.64;61.74121;944.2315;;;;
2022/10/07 10:46:34;;;;;;;3.6;2.5;;;;;;;21.34;59.18164;944.2137;;;;
2022/10/07 10:48:59;;;;;;;5.4;2.3;;;;;;;22.05;57.21289;944.2536;;;;
2022/10/07 10:51:31;;;;;;;3.5;2.2;;;;;;;22.26;53.73438;944.1908;;;;
2022/10/07 10:53:55;;;;;;;4;2.6;;;;;;;22.46;54.54297;944.1581;;;;
2022/10/07 10:56:21;;;;;;;2.7;2.5;;;;;;;23.06;51.69238;944.1205;;;;
2022/10/07 10:58:46;;;;;;;4.4;2.4;;;;;;;23.29;50.84863;944.1221;;;;
2022/10/07 11:01:11;;;;;;;3.9;2.5;;;;;;;22.49;53.45605;944.0739;;;;
2022/10/07 11:03:38;;;;;;;2.4;2.2;;;;;;;23.22;51.45215;944.0603;;;;
2022/10/07 11:06:06;;;;;;;4.2;2.2;;;;;;;23.73;50.31055;943.9604;;;;
2022/10/07 11:08:31;;;;;;;2.6;2.4;;;;;;;23.97;50.05566;944.0236;;;;
2022/10/07 11:11:19;;;;;;;3.4;2.4;;;;;;;23.49;52.75391;943.9536;;;;
2022/10/07 11:13:45;;;;;;;4.2;2.5;;;;;;;23.9;51.10742;943.9079;;;;
2022/10/07 11:16:09;;;;;;;3.3;2.2;;;;;;;24.32;49.40039;943.8781;;;;
2022/10/07 11:18:34;;;;;;;2.6;2.2;;;;;;;24.73;47.71191;943.8089;;;;
2022/10/07 11:21:00;;;;;;;3.3;2.4;;;;;;;25.23;47.45898;943.8002;;;;
2022/10/07 11:23:25;;;;;;;2.7;2.4;;;;;;;25.96;45.85742;943.7819;;;;
2022/10/07 11:25:56;;;;;;;3.7;2.3;;;;;;;26.04;45.58203;943.7347;;;;
2022/10/07 11:28:58;;;;;;;4.4;2.2;;;;;;;25.77;46.6875;943.6965;;;;
2022/10/07 11:31:24;;;;;;;2.9;2.3;;;;;;;27.19;42.875;943.6699;;;;
2022/10/07 11:33:49;;;;;;;3.7;2;;;;;;;27.67;41.79297;943.6295;;;;
2022/10/07 11:36:15;;;;;;;3.6;2.2;;;;;;;28.25;41.90723;943.5645;;;;
2022/10/07 11:38:40;;;;;;;2.7;2.1;;;;;;;27.74;41.29004;943.5989;;;;
2022/10/07 11:41:05;;;;;;;4.1;2.6;;;;;;;26.41;44.93164;943.4673;;;;
2022/10/07 11:43:31;;;;;;;3;2.3;;;;;;;25.48;48.28906;943.563;;;;
2022/10/07 11:45:56;;;;;;;3.5;2.4;;;;;;;26.58;45.63574;943.4281;;;;
2022/10/07 11:48:21;;;;;;;3.3;2.4;;;;;;;26.02;48.08594;943.4324;;;;
2022/10/07 11:50:46;;;;;;;4.4;2.4;;;;;;;26.76;45.29883;943.3722;;;;
2022/10/07 11:53:11;;;;;;;3.5;2.1;;;;;;;26.63;44.80078;943.4252;;;;
2022/10/07 11:55:38;;;;;;;2.3;2.1;;;;;;;27.04;44.4502;943.3513;;;;
2022/10/07 11:58:03;;;;;;;2.5;2.3;;;;;;;26.18;47.58203;943.3337;;;;
2022/10/07 12:00:28;;;;;;;2.4;2.2;;;;;;;25.1;49.59277;943.2458;;;;
2022/10/07 12:02:59;;;;;;;4.5;2.6;;;;;;;25.45;50.04492;943.2031;;;;
2022/10/07 12:05:29;;;;;;;4.9;2.5;;;;;;;26.8;45.49316;943.1765;;;;
2022/10/07 12:07:57;;;;;;;3.8;2.3;;;;;;;28.12;42.4541;943.0948;;;;
2022/10/07 12:10:22;;;;;;;3.3;2.2;;;;;;;28.29;43.08789;943.0474;;;;
2022/10/07 12:12:47;;;;;;;2.5;2.3;;;;;;;27.87;44.38965;943.0508;;;;
2022/10/07 12:15:16;;;;;;;4.1;2.4;;;;;;;27.53;43.77441;942.9947;;;;
2022/10/07 12:17:41;;;;;;;3.6;2.3;;;;;;;28.22;43.19922;942.9852;;;;
2022/10/07 12:20:11;;;;;;;3.3;2.4;;;;;;;28;42.81055;942.9388;;;;
2022/10/07 12:22:38;;;;;;;2.6;2.4;;;;;;;28.3;41.84082;942.923;;;;
2022/10/07 12:25:03;;;;;;;3.6;2.5;;;;;;;26.88;44.6123;942.8839;;;;
2022/10/07 12:27:28;;;;;;;3.6;2.6;;;;;;;28.37;42.54883;942.8278;;;;
2022/10/07 12:29:57;;;;;;;4.3;2.3;;;;;;;27.91;43.63281;942.7425;;;;
2022/10/07 12:32:22;;;;;;;2.4;2.2;;;;;;;29.24;40.05762;942.7439;;;;
2022/10/07 12:34:46;;;;;;;3.2;1.9;;;;;;;30.13;38.76465;942.6922;;;;
2022/10/07 12:37:14;;;;;;;2.9;2.5;;;;;;;30.85;37.33203;942.676;;;;
2022/10/07 12:39:41;;;;;;;2.5;2.1;;;;;;;32.04;34.3252;942.6823;;;;
2022/10/07 12:42:06;;;;;;;2.6;2.1;;;;;;;32.67;33.78613;942.6472;;;;
2022/10/07 12:44:35;;;;;;;2.7;2.1;;;;;;;33.6;32.24316;942.6368;;;;
2022/10/07 12:47:05;;;;;;;4.1;2.4;;;;;;;31.8;35.46973;942.5889;;;;
2022/10/07 12:49:31;;;;;;;3.4;2.3;;;;;;;33.58;32.44629;942.6472;;;;
2022/10/07 12:51:57;;;;;;;3.7;2.1;;;;;;;33.16;32.91992;942.4899;;;;
2022/10/07 12:54:22;;;;;;;2.5;2.3;;;;;;;32.69;33.51074;942.5577;;;;
2022/10/07 12:56:47;;;;;;;2.4;2.1;;;;;;;33.52;31.93652;942.5398;;;;
2022/10/07 13:01:41;;;;;;;2.9;2.4;;;;;;;33.09;33.50391;942.434;;;;
2022/10/07 13:04:07;;;;;;;3.5;2.5;;;;;;;34.02;31.99609;942.4348;;;;
2022/10/07 13:06:31;;;;;;;4;2.5;;;;;;;34.38;31.58789;942.4663;;;;
2022/10/07 13:09:01;;;;;;;2.5;2.3;;;;;;;33.85;31.92383;942.3884;;;;
2022/10/07 13:11:24;;;;;;;2.5;2.3;;;;;;;34.78;30.96387;942.4229;;;;
2022/10/07 13:13:49;;;;;;;4.6;2.9;;;;;;;33.79;32.05176;942.3699;;;;
2022/10/07 13:16:15;;;;;;;2.5;2.3;;;;;;;34.85;31.29395;942.3475;;;;
2022/10/07 13:18:40;;;;;;;3.2;2.5;;;;;;;35.35;31.09863;942.3105;;;;
2022/10/07 13:21:05;;;;;;;3;2.5;;;;;;;35;31.35352;942.3823;;;;
2022/10/07 13:23:30;;;;;;;2.8;2.5;;;;;;;33.87;32.37012;942.3201;;;;
2022/10/07 13:25:55;;;;;;;4.5;2.8;;;;;;;32.41;34.75;942.2699;;;;
2022/10/07 13:28:21;;;;;;;5.2;2.4;;;;;;;32.38;34.45996;942.2051;;;;
2022/10/07 13:30:45;;;;;;;2.6;2.4;;;;;;;32.64;34.21484;942.1638;;;;
2022/10/07 13:33:14;;;;;;;3.9;2.5;;;;;;;33.72;33.5498;942.1863;;;;
2022/10/07 13:35:39;;;;;;;5.1;2.4;;;;;;;32.27;34.94238;942.1783;;;;
2022/10/07 13:38:04;;;;;;;2.9;2.4;;;;;;;32.52;34.78223;942.0935;;;;
2022/10/07 13:40:34;;;;;;;2.9;2.4;;;;;;;33.71;32.29883;942.0895;;;;
2022/10/07 13:42:57;;;;;;;2.7;2.5;;;;;;;33.67;32.58496;942.1203;;;;
2022/10/07 13:45:22;;;;;;;3.4;2.7;;;;;;;32.67;33.4248;942.0692;;;;
2022/10/07 13:47:47;;;;;;;4.4;2.5;;;;;;;32.16;34.20313;942.0792;;;;
2022/10/07 13:50:12;;;;;;;3.9;2.6;;;;;;;31.78;35.04883;942.0156;;;;
2022/10/07 13:52:42;;;;;;;3.9;2.5;;;;;;;33.1;33.33691;942.0341;;;;
2022/10/07 13:55:07;;;;;;;3.6;3;;;;;;;31.3;36.07715;941.9501;;;;
2022/10/07 13:57:42;;;;;;;3.6;2.7;;;;;;;32.43;34.69141;941.9727;;;;
2022/10/07 14:00:02;;;;;;;4.1;3;;;;;;;32.2;34.9375;941.9495;;;;
2022/10/07 14:02:33;;;;;;;4.6;2.7;;;;;;;31.45;35.96973;942.0128;;;;
2022/10/07 14:05:02;;;;;;;3.2;2.8;;;;;;;29;41.09668;942.007;;;;
2022/10/07 14:07:27;;;;;;;3.1;2.8;;;;;;;29.43;40.51563;941.9528;;;;
2022/10/07 14:09:52;;;;;;;4.1;3.2;;;;;;;28.72;42.16504;941.9473;;;;
2022/10/07 14:12:18;;;;;;;6.5;3.1;;;;;;;28.79;41.58887;941.942;;;;
2022/10/07 14:14:43;;;;;;;6;3.2;;;;;;;27.86;43.93652;941.9274;;;;
2022/10/07 14:17:08;;;;;;;5.1;3.2;;;;;;;28.84;41.74902;941.9631;;;;
2022/10/07 14:19:33;;;;;;;3.6;3;;;;;;;29.03;41.79004;941.9906;;;;
2022/10/07 14:21:58;;;;;;;3.7;3.3;;;;;;;26.75;45.68848;941.9442;;;;
2022/10/07 14:24:25;;;;;;;3.9;3.2;;;;;;;27.08;45.10645;941.939;;;;
2022/10/07 14:26:49;;;;;;;5.5;3.4;;;;;;;27.74;44.76855;941.9842;;;;
2022/10/07 14:29:15;;;;;;;4;3.3;;;;;;;28.72;42.52246;941.9592;;;;
2022/10/07 14:36:37;;;;;;;3.9;3.5;;;;;;;26.11;47.97656;941.9157;;;;
2022/10/07 14:39:03;;;;;;;4;2.8;;;;;;;27.36;45.5498;941.8943;;;;
2022/10/07 14:41:28;;;;;;;3.8;3.1;;;;;;;27.29;45.51855;941.853;;;;
2022/10/07 14:43:55;;;;;;;6.3;3.4;;;;;;;27.06;46.11133;941.8395;;;;
2022/10/07 14:46:19;;;;;;;3.6;3.2;;;;;;;27.12;45.99805;941.79;;;;
2022/10/07 14:48:50;;;;;;;4.6;3.1;;;;;;;26.59;46.9502;941.8855;;;;
2022/10/07 14:51:16;;;;;;;5;3.7;;;;;;;25.83;49.1416;941.7873;;;;
2022/10/07 14:53:41;;;;;;;3.9;3.3;;;;;;;25.7;49.00879;941.8019;;;;
2022/10/07 14:56:11;;;;;;;4.9;3.6;;;;;;;25.94;48.50293;941.7891;;;;
2022/10/07 14:58:36;;;;;;;3.8;3.4;;;;;;;25.73;49.16602;941.7408;;;;
2022/10/07 15:01:01;;;;;;;4.6;3.8;;;;;;;25.26;50.29492;941.7411;;;;
2022/10/07 15:03:28;;;;;;;3.5;3.2;;;;;;;24.45;52.31348;941.7408;;;;